createdAt,value
2018-05-17T00:00:45.784Z,40.3
2018-05-17T00:01:51.128Z,40.3
2018-05-17T00:02:55.465Z,40.3
2018-05-17T00:03:59.814Z,40.1
2018-05-17T00:05:05.185Z,40.2
2018-05-17T00:06:09.542Z,40.2
2018-05-17T00:07:13.809Z,40.3
2018-05-17T00:08:19.089Z,40.2
2018-05-17T00:09:24.357Z,40.2
2018-05-17T00:10:29.720Z,40.2
2018-05-17T00:11:33.978Z,40.2
2018-05-17T00:12:38.232Z,40.2
2018-05-17T00:13:43.502Z,40.1
2018-05-17T00:14:48.769Z,40.2
2018-05-17T00:15:53.033Z,40.2
2018-05-17T00:16:57.299Z,40.2
2018-05-17T00:18:02.671Z,40.2
2018-05-17T00:19:08.029Z,40.1
2018-05-17T00:20:12.392Z,40.2
2018-05-17T00:21:16.655Z,40.2
2018-05-17T00:22:21.867Z,40.2
2018-05-17T00:23:46.551Z,40.3
2018-05-17T00:24:51.907Z,40.2
2018-05-17T00:25:56.269Z,40.2
2018-05-17T00:27:00.726Z,40.2
2018-05-17T00:28:06.076Z,41
2018-05-17T00:29:10.547Z,40.3
2018-05-17T00:30:16.008Z,40.3
2018-05-17T00:31:21.350Z,40.3
2018-05-17T00:32:25.815Z,40.2
2018-05-17T00:33:34.160Z,40.2
2018-05-17T00:34:39.626Z,40.3
2018-05-17T00:35:44.133Z,40.2
2018-05-17T00:36:49.402Z,40.1
2018-05-17T00:37:54.669Z,40.2
2018-05-17T00:38:59.033Z,40.2
2018-05-17T00:40:03.392Z,40.3
2018-05-17T00:41:08.760Z,40.2
2018-05-17T00:42:14.021Z,40.1
2018-05-17T00:43:21.289Z,40.1
2018-05-17T00:44:25.661Z,40.2
2018-05-17T00:45:30.924Z,40.9
2018-05-17T00:46:36.278Z,40.1
2018-05-17T00:47:40.434Z,40.2
2018-05-17T00:48:44.806Z,40.1
2018-05-17T00:49:50.097Z,40.2
2018-05-17T00:50:55.361Z,40.2
2018-05-17T00:52:00.617Z,40.2
2018-05-17T00:53:05.040Z,40.2
2018-05-17T00:54:12.318Z,40.2
2018-05-17T00:55:17.683Z,40.2
2018-05-17T00:56:23.044Z,40.2
2018-05-17T00:57:27.299Z,40.2
2018-05-17T00:58:31.565Z,40.2
2018-05-17T00:59:36.934Z,40.3
2018-05-17T01:00:42.298Z,40.3
2018-05-17T01:01:46.662Z,40.2
2018-05-17T01:02:51.929Z,40.2
2018-05-17T01:03:57.197Z,40.2
2018-05-17T01:05:02.460Z,40.3
2018-05-17T01:06:06.738Z,40.3
2018-05-17T01:07:11.103Z,40.3
2018-05-17T01:08:16.374Z,40.3
2018-05-17T01:09:21.731Z,40.4
2018-05-17T01:10:25.984Z,40.3
2018-05-17T01:11:30.342Z,40.2
2018-05-17T01:12:35.513Z,40.2
2018-05-17T01:13:40.679Z,40.3
2018-05-17T01:14:45.934Z,40.3
2018-05-17T01:15:50.301Z,40.2
2018-05-17T01:16:54.561Z,40.2
2018-05-17T01:17:59.925Z,40.2
2018-05-17T01:19:06.190Z,40.2
2018-05-17T01:20:10.452Z,40.3
2018-05-17T01:21:14.716Z,40.3
2018-05-17T01:22:18.981Z,40.3
2018-05-17T01:23:24.355Z,40.3
2018-05-17T01:24:31.724Z,40.3
2018-05-17T01:25:36.082Z,40.3
2018-05-17T01:26:41.343Z,40.3
2018-05-17T01:27:46.707Z,41
2018-05-17T01:28:50.875Z,40.2
2018-05-17T01:29:55.139Z,40.3
2018-05-17T01:30:59.405Z,41
2018-05-17T01:32:04.670Z,40.3
2018-05-17T01:33:09.939Z,40.3
2018-05-17T01:34:15.106Z,40.3
2018-05-17T01:35:19.469Z,40.3
2018-05-17T01:36:23.833Z,40.3
2018-05-17T01:37:29.191Z,40.3
2018-05-17T01:38:33.565Z,40.3
2018-05-17T01:39:37.844Z,40.4
2018-05-17T01:40:43.203Z,40.4
2018-05-17T01:41:48.565Z,40.3
2018-05-17T01:42:52.822Z,40.4
2018-05-17T01:43:57.091Z,40.3
2018-05-17T01:45:02.349Z,40.4
2018-05-17T01:46:07.711Z,41.1
2018-05-17T01:47:12.068Z,40.3
2018-05-17T01:48:19.335Z,40.4
2018-05-17T01:49:27.607Z,40.3
2018-05-17T01:50:32.961Z,40.3
2018-05-17T01:51:38.315Z,41
2018-05-17T01:52:42.582Z,40.3
2018-05-17T01:53:46.851Z,40.2
2018-05-17T01:54:52.108Z,40.4
2018-05-17T01:55:57.370Z,40.4
2018-05-17T01:57:01.657Z,40.4
2018-05-17T01:58:05.928Z,40.4
2018-05-17T01:59:10.300Z,40.3
2018-05-17T02:00:15.741Z,40.4
2018-05-17T02:01:20.008Z,40.4
2018-05-17T02:02:24.374Z,41.1
2018-05-17T02:03:29.647Z,40.4
2018-05-17T02:04:34.913Z,40.5
2018-05-17T02:05:39.201Z,40.5
2018-05-17T02:06:43.561Z,40.5
2018-05-17T02:07:48.930Z,40.4
2018-05-17T02:08:54.098Z,40.4
2018-05-17T02:09:58.467Z,40.5
2018-05-17T02:11:02.722Z,40.5
2018-05-17T02:12:08.082Z,40.5
2018-05-17T02:13:13.352Z,40.5
2018-05-17T02:14:17.697Z,40.5
2018-05-17T02:15:22.057Z,40.5
2018-05-17T02:16:27.413Z,40.5
2018-05-17T02:17:32.673Z,40.5
2018-05-17T02:18:37.042Z,40.5
2018-05-17T02:19:41.503Z,40.5
2018-05-17T02:20:46.868Z,40.5
2018-05-17T02:21:51.230Z,40.5
2018-05-17T02:22:55.496Z,40.5
2018-05-17T02:24:00.770Z,40.4
2018-05-17T02:25:08.035Z,40.6
2018-05-17T02:26:12.292Z,40.5
2018-05-17T02:27:19.554Z,40.5
2018-05-17T02:28:23.827Z,40.5
2018-05-17T02:29:29.114Z,40.5
2018-05-17T02:30:34.379Z,40.5
2018-05-17T02:31:38.646Z,40.5
2018-05-17T02:32:42.913Z,40.5
2018-05-17T02:33:47.299Z,40.4
2018-05-17T02:34:52.589Z,40.5
2018-05-17T02:35:56.954Z,40.5
2018-05-17T02:37:01.323Z,40.5
2018-05-17T02:38:06.685Z,40.5
2018-05-17T02:39:11.950Z,40.5
2018-05-17T02:40:16.313Z,40.5
2018-05-17T02:41:20.670Z,40.6
2018-05-17T02:42:25.932Z,40.5
2018-05-17T02:43:31.203Z,40.5
2018-05-17T02:44:35.568Z,40.5
2018-05-17T02:45:42.931Z,40.6
2018-05-17T02:46:48.111Z,40.6
2018-05-17T02:47:53.369Z,40.6
2018-05-17T02:48:57.637Z,40.5
2018-05-17T02:50:01.891Z,40.6
2018-05-17T02:51:06.256Z,40.6
2018-05-17T02:52:11.522Z,40.5
2018-05-17T02:53:16.784Z,40.6
2018-05-17T02:54:21.142Z,40.6
2018-05-17T02:55:25.412Z,40.6
2018-05-17T02:56:30.734Z,40.6
2018-05-17T02:57:35.993Z,40.6
2018-05-17T02:58:40.311Z,40.6
2018-05-17T02:59:44.676Z,40.6
2018-05-17T03:00:50.038Z,40.6
2018-05-17T03:01:54.399Z,40.6
2018-05-17T03:02:58.659Z,40.6
2018-05-17T03:04:04.028Z,40.5
2018-05-17T03:05:09.395Z,40.6
2018-05-17T03:06:13.759Z,40.6
2018-05-17T03:07:18.024Z,40.6
2018-05-17T03:08:23.296Z,40.6
2018-05-17T03:09:28.457Z,40.6
2018-05-17T03:10:33.715Z,40.6
2018-05-17T03:11:38.075Z,40.6
2018-05-17T03:12:42.335Z,41.3
2018-05-17T03:13:47.808Z,40.5
2018-05-17T03:14:52.092Z,40.6
2018-05-17T03:15:57.463Z,40.6
2018-05-17T03:17:02.795Z,40.6
2018-05-17T03:18:08.152Z,40.6
2018-05-17T03:19:12.620Z,40.5
2018-05-17T03:20:17.957Z,40.6
2018-05-17T03:21:23.292Z,40.6
2018-05-17T03:22:27.660Z,40.6
2018-05-17T03:23:31.927Z,40.7
2018-05-17T03:24:37.387Z,40.6
2018-05-17T03:25:44.893Z,40.6
2018-05-17T03:26:49.171Z,40.6
2018-05-17T03:27:54.503Z,40.6
2018-05-17T03:28:58.997Z,40.5
2018-05-17T03:30:03.562Z,40.6
2018-05-17T03:31:08.900Z,40.6
2018-05-17T03:32:16.259Z,40.7
2018-05-17T03:33:20.728Z,40.6
2018-05-17T03:34:26.086Z,41.3
2018-05-17T03:35:30.341Z,40.6
2018-05-17T03:36:34.707Z,40.6
2018-05-17T03:37:39.966Z,40.7
2018-05-17T03:38:45.237Z,40.6
2018-05-17T03:39:50.604Z,40.7
2018-05-17T03:40:54.765Z,40.7
2018-05-17T03:41:59.123Z,40.7
2018-05-17T03:43:04.483Z,40.7
2018-05-17T03:44:09.748Z,40.6
2018-05-17T03:45:14.106Z,40.6
2018-05-17T03:46:18.368Z,40.6
2018-05-17T03:47:26.633Z,40.6
2018-05-17T03:48:31.901Z,40.6
2018-05-17T03:49:37.264Z,40.7
2018-05-17T03:50:41.598Z,40.6
2018-05-17T03:51:47.055Z,40.7
2018-05-17T03:52:52.393Z,40.6
2018-05-17T03:53:56.673Z,40.6
2018-05-17T03:55:01.111Z,40.6
2018-05-17T03:56:06.463Z,40.7
2018-05-17T03:57:10.807Z,40.7
2018-05-17T03:58:15.285Z,40.7
2018-05-17T03:59:20.652Z,40.7
2018-05-17T04:00:25.010Z,40.7
2018-05-17T04:01:29.265Z,40.7
2018-05-17T04:02:34.522Z,40.7
2018-05-17T04:03:39.788Z,40.7
2018-05-17T04:04:44.051Z,40.7
2018-05-17T04:05:48.319Z,40.7
2018-05-17T04:06:53.581Z,40.7
2018-05-17T04:07:58.846Z,40.7
2018-05-17T04:09:04.111Z,41.3
2018-05-17T04:10:08.369Z,40.7
2018-05-17T04:11:12.758Z,40.7
2018-05-17T04:12:18.121Z,40.7
2018-05-17T04:13:23.397Z,40.7
2018-05-17T04:14:27.563Z,40.7
2018-05-17T04:15:31.931Z,40.7
2018-05-17T04:16:37.194Z,40.7
2018-05-17T04:17:42.468Z,40.6
2018-05-17T04:18:47.732Z,40.6
2018-05-17T04:19:52.097Z,40.7
2018-05-17T04:20:56.357Z,40.7
2018-05-17T04:22:01.634Z,40.7
2018-05-17T04:23:06.897Z,40.7
2018-05-17T04:24:11.370Z,40.6
2018-05-17T04:25:16.705Z,40.6
2018-05-17T04:26:24.172Z,40.7
2018-05-17T04:27:28.641Z,40.7
2018-05-17T04:28:33.983Z,40.7
2018-05-17T04:29:39.353Z,40.7
2018-05-17T04:30:43.707Z,41.4
2018-05-17T04:31:48.038Z,40.7
2018-05-17T04:32:53.396Z,40.6
2018-05-17T04:33:58.766Z,40.6
2018-05-17T04:35:03.106Z,40.7
2018-05-17T04:36:08.369Z,40.7
2018-05-17T04:37:13.728Z,40.7
2018-05-17T04:38:17.999Z,40.6
2018-05-17T04:39:22.262Z,40.6
2018-05-17T04:40:26.582Z,40.6
2018-05-17T04:41:31.842Z,40.6
2018-05-17T04:42:37.111Z,40.7
2018-05-17T04:43:41.383Z,40.6
2018-05-17T04:44:45.716Z,40.6
2018-05-17T04:45:51.069Z,40.7
2018-05-17T04:46:56.526Z,40.6
2018-05-17T04:48:00.986Z,40.7
2018-05-17T04:49:06.332Z,40.6
2018-05-17T04:50:11.701Z,40.7
2018-05-17T04:51:16.061Z,40.6
2018-05-17T04:52:21.327Z,40.6
2018-05-17T04:53:26.599Z,41.4
2018-05-17T04:54:31.863Z,40.7
2018-05-17T04:55:36.217Z,40.7
2018-05-17T04:56:41.477Z,40.7
2018-05-17T04:57:46.842Z,40.7
2018-05-17T04:58:52.207Z,40.6
2018-05-17T04:59:56.367Z,40.7
2018-05-17T05:01:00.756Z,40.7
2018-05-17T05:02:06.119Z,40.7
2018-05-17T05:03:10.488Z,40.7
2018-05-17T05:04:14.755Z,40.7
2018-05-17T05:05:20.016Z,40.7
2018-05-17T05:06:25.379Z,41.4
2018-05-17T05:07:29.633Z,40.7
2018-05-17T05:08:34.018Z,40.7
2018-05-17T05:09:39.282Z,40.6
2018-05-17T05:10:44.659Z,40.6
2018-05-17T05:11:49.014Z,40.5
2018-05-17T05:12:53.271Z,40.4
2018-05-17T05:13:59.670Z,40.3
2018-05-17T05:15:05.035Z,40.3
2018-05-17T05:16:09.368Z,40.1
2018-05-17T05:17:14.833Z,40.1
2018-05-17T05:18:20.298Z,40.1
2018-05-17T05:19:24.644Z,40.2
2018-05-17T05:20:29.903Z,40.2
2018-05-17T05:21:34.393Z,40.3
2018-05-17T05:22:38.852Z,40.5
2018-05-17T05:23:44.289Z,40.4
2018-05-17T05:24:49.564Z,40.5
2018-05-17T05:25:53.825Z,40.5
2018-05-17T05:27:02.299Z,40.6
2018-05-17T05:28:07.564Z,40.7
2018-05-17T05:29:12.932Z,40.7
2018-05-17T05:30:17.404Z,40.6
2018-05-17T05:31:22.768Z,40.6
2018-05-17T05:32:28.127Z,40.5
2018-05-17T05:33:32.499Z,40.5
2018-05-17T05:34:37.856Z,40.6
2018-05-17T05:35:43.012Z,40.6
2018-05-17T05:36:48.204Z,40.7
2018-05-17T05:37:53.462Z,40.6
2018-05-17T05:38:57.828Z,40.6
2018-05-17T05:40:05.187Z,40.7
2018-05-17T05:41:10.459Z,40.7
2018-05-17T05:42:15.816Z,40.8
2018-05-17T05:43:20.353Z,40.8
2018-05-17T05:44:25.660Z,40.8
2018-05-17T05:45:30.918Z,40.8
2018-05-17T05:46:35.281Z,40.8
2018-05-17T05:47:39.645Z,40.8
2018-05-17T05:48:44.910Z,40.8
2018-05-17T05:49:50.074Z,40.8
2018-05-17T05:50:54.332Z,40.7
2018-05-17T05:51:58.694Z,40.7
2018-05-17T05:53:04.108Z,40.7
2018-05-17T05:54:28.871Z,40.7
2018-05-17T05:55:34.139Z,40.7
2018-05-17T05:56:38.401Z,40.8
2018-05-17T05:57:42.767Z,40.8
2018-05-17T05:58:51.131Z,40.8
2018-05-17T05:59:56.498Z,40.8
2018-05-17T06:01:00.760Z,40.8
2018-05-17T06:02:05.028Z,40.9
2018-05-17T06:03:10.384Z,40.9
2018-05-17T06:04:15.652Z,40.8
2018-05-17T06:05:22.915Z,40.9
2018-05-17T06:06:27.282Z,41
2018-05-17T06:07:32.646Z,40.9
2018-05-17T06:08:38.023Z,41
2018-05-17T06:09:42.286Z,41.7
2018-05-17T06:10:46.648Z,40.9
2018-05-17T06:11:52.016Z,40.9
2018-05-17T06:12:56.274Z,40.8
2018-05-17T06:14:00.542Z,40.7
2018-05-17T06:15:04.804Z,40.7
2018-05-17T06:16:10.165Z,40.7
2018-05-17T06:17:15.533Z,40.6
2018-05-17T06:18:22.797Z,40.5
2018-05-17T06:19:27.056Z,40.5
2018-05-17T06:20:32.313Z,40.4
2018-05-17T06:21:37.577Z,40.3
2018-05-17T06:22:42.842Z,40.3
2018-05-17T06:23:47.229Z,40.1
2018-05-17T06:24:52.496Z,40.2
2018-05-17T06:25:57.863Z,40.1
2018-05-17T06:27:03.207Z,40.1
2018-05-17T06:28:07.466Z,40.1
2018-05-17T06:29:11.822Z,40.1
2018-05-17T06:30:17.206Z,40.1
2018-05-17T06:31:21.713Z,40.1
2018-05-17T06:32:26.976Z,40.1
2018-05-17T06:33:32.440Z,40.1
2018-05-17T06:34:36.796Z,40.1
2018-05-17T06:35:41.062Z,40.1
2018-05-17T06:36:46.329Z,40.2
2018-05-17T06:37:51.597Z,40.9
2018-05-17T06:38:58.861Z,40.2
2018-05-17T06:40:03.136Z,40.2
2018-05-17T06:41:07.399Z,40.2
2018-05-17T06:42:12.656Z,40.2
2018-05-17T06:43:18.024Z,40.1
2018-05-17T06:44:22.390Z,40.9
2018-05-17T06:45:26.751Z,40.2
2018-05-17T06:46:32.214Z,40.9
2018-05-17T06:47:36.475Z,40.1
2018-05-17T06:48:40.748Z,40
2018-05-17T06:49:46.113Z,40
2018-05-17T06:50:51.386Z,39.8
2018-05-17T06:51:55.690Z,39.8
2018-05-17T06:52:59.965Z,39.7
2018-05-17T06:54:05.335Z,39.7
2018-05-17T06:55:12.799Z,39.7
2018-05-17T06:56:17.056Z,39.6
2018-05-17T06:57:21.394Z,39.6
2018-05-17T06:58:26.564Z,39.7
2018-05-17T06:59:31.822Z,39.8
2018-05-17T07:00:37.110Z,39.7
2018-05-17T07:01:44.455Z,39.7
2018-05-17T07:02:48.714Z,39.7
2018-05-17T07:03:54.094Z,39.8
2018-05-17T07:04:59.428Z,39.8
2018-05-17T07:06:03.887Z,39.8
2018-05-17T07:07:09.238Z,39.8
2018-05-17T07:08:14.711Z,39.8
2018-05-17T07:09:19.195Z,39.8
2018-05-17T07:10:24.724Z,39.8
2018-05-17T07:11:29.065Z,39.8
2018-05-17T07:12:33.333Z,39.8
2018-05-17T07:13:38.610Z,39.8
2018-05-17T07:14:43.868Z,39.8
2018-05-17T07:15:48.125Z,39.9
2018-05-17T07:16:55.383Z,39.8
2018-05-17T07:17:59.851Z,39.9
2018-05-17T07:19:04.947Z,39.8
2018-05-17T07:20:10.317Z,39.9
2018-05-17T07:21:14.687Z,39.9
2018-05-17T07:22:20.061Z,39.9
2018-05-17T07:23:25.227Z,39.9
2018-05-17T07:24:30.486Z,39.9
2018-05-17T07:25:34.747Z,39.9
2018-05-17T07:26:39.102Z,39.8
2018-05-17T07:27:44.364Z,39.8
2018-05-17T07:28:49.737Z,39.8
2018-05-17T07:29:54.155Z,39.8
2018-05-17T07:31:01.425Z,39.8
2018-05-17T07:32:06.711Z,39.8
2018-05-17T07:33:11.883Z,39.9
2018-05-17T07:34:17.164Z,39.9
2018-05-17T07:35:21.424Z,39.9
2018-05-17T07:36:25.684Z,39.9
2018-05-17T07:37:30.952Z,39.9
2018-05-17T07:38:36.142Z,39.9
2018-05-17T07:39:41.289Z,39.9
2018-05-17T07:40:46.457Z,39.9
2018-05-17T07:41:50.728Z,40
2018-05-17T07:42:54.992Z,40
2018-05-17T07:44:00.468Z,40
2018-05-17T07:45:05.732Z,40
2018-05-17T07:46:10.029Z,40
2018-05-17T07:47:14.351Z,40
2018-05-17T07:48:19.522Z,40
2018-05-17T07:49:24.871Z,40
2018-05-17T07:50:29.140Z,39.9
2018-05-17T07:51:34.402Z,39.9
2018-05-17T07:52:38.663Z,40
2018-05-17T07:53:44.031Z,40
2018-05-17T07:54:49.392Z,40
2018-05-17T07:55:57.658Z,39.9
2018-05-17T07:57:01.833Z,39.9
2018-05-17T07:58:06.100Z,39.9
2018-05-17T07:59:11.368Z,39.9
2018-05-17T08:00:16.631Z,39.8
2018-05-17T08:01:20.889Z,40.5
2018-05-17T08:02:25.152Z,39.8
2018-05-17T08:03:30.425Z,39.8
2018-05-17T08:04:35.786Z,39.8
2018-05-17T08:05:41.151Z,39.7
2018-05-17T08:06:45.515Z,39.7
2018-05-17T08:07:50.768Z,39.7
2018-05-17T08:08:56.039Z,39.7
2018-05-17T08:10:01.204Z,39.8
2018-05-17T08:11:05.566Z,39.7
2018-05-17T08:12:09.738Z,39.7
2018-05-17T08:13:15.033Z,39.7
2018-05-17T08:14:20.295Z,39.7
2018-05-17T08:15:28.659Z,39.7
2018-05-17T08:16:32.922Z,39.7
2018-05-17T08:17:37.282Z,39.6
2018-05-17T08:18:42.549Z,39.6
2018-05-17T08:19:47.811Z,39.6
2018-05-17T08:20:52.173Z,39.6
2018-05-17T08:21:56.536Z,39.5
2018-05-17T08:23:01.903Z,39.5
2018-05-17T08:24:07.177Z,40.1
2018-05-17T08:25:11.639Z,39.5
2018-05-17T08:26:16.902Z,40.1
2018-05-17T08:27:22.264Z,39.4
2018-05-17T08:28:26.525Z,39.5
2018-05-17T08:29:30.781Z,39.5
2018-05-17T08:30:36.144Z,39.5
2018-05-17T08:31:41.503Z,39.4
2018-05-17T08:32:45.760Z,39.4
2018-05-17T08:33:50.037Z,39.4
2018-05-17T08:34:55.380Z,40
2018-05-17T08:36:00.783Z,39.4
2018-05-17T08:37:05.164Z,39.3
2018-05-17T08:38:09.524Z,39.3
2018-05-17T08:39:14.890Z,39.3
2018-05-17T08:40:19.253Z,39.3
2018-05-17T08:41:23.521Z,39.3
2018-05-17T08:42:28.804Z,39.3
2018-05-17T08:43:34.077Z,39.3
2018-05-17T08:44:38.257Z,39.3
2018-05-17T08:45:42.690Z,39.2
2018-05-17T08:46:47.975Z,39.2
2018-05-17T08:47:53.234Z,39.1
2018-05-17T08:48:58.498Z,39.1
2018-05-17T08:50:02.764Z,39.1
2018-05-17T08:51:07.130Z,39.1
2018-05-17T08:52:12.472Z,39.1
2018-05-17T08:53:17.739Z,39.1
2018-05-17T08:54:22.232Z,39.1
2018-05-17T08:55:27.636Z,39
2018-05-17T08:56:34.978Z,39
2018-05-17T08:57:39.346Z,39
2018-05-17T08:58:43.716Z,39
2018-05-17T08:59:49.035Z,39
2018-05-17T09:00:54.304Z,39
2018-05-17T09:01:58.668Z,39
2018-05-17T09:03:04.027Z,39
2018-05-17T09:04:09.294Z,38.9
2018-05-17T09:05:14.550Z,38.9
2018-05-17T09:06:18.893Z,38.8
2018-05-17T09:07:24.170Z,38.8
2018-05-17T09:08:29.541Z,38.8
2018-05-17T09:09:34.812Z,39.5
2018-05-17T09:10:39.175Z,38.8
2018-05-17T09:11:44.443Z,38.8
2018-05-17T09:12:49.708Z,38.8
2018-05-17T09:13:55.089Z,38.7
2018-05-17T09:14:59.447Z,38.7
2018-05-17T09:16:03.707Z,38.7
2018-05-17T09:17:08.971Z,38.6
2018-05-17T09:18:14.242Z,38.7
2018-05-17T09:19:18.522Z,38.7
2018-05-17T09:20:22.882Z,38.6
2018-05-17T09:21:28.242Z,38.6
2018-05-17T09:22:33.500Z,38.6
2018-05-17T09:23:37.767Z,38.7
2018-05-17T09:24:41.835Z,38.7
2018-05-17T09:25:46.196Z,38.7
2018-05-17T09:26:51.454Z,38.6
2018-05-17T09:27:56.708Z,38.6
2018-05-17T09:29:01.080Z,38.6
2018-05-17T09:30:05.339Z,38.6
2018-05-17T09:31:10.702Z,39.2
2018-05-17T09:32:15.969Z,38.6
2018-05-17T09:33:20.340Z,38.6
2018-05-17T09:34:24.607Z,38.6
2018-05-17T09:35:29.864Z,38.5
2018-05-17T09:36:35.135Z,38.4
2018-05-17T09:37:40.401Z,38.5
2018-05-17T09:38:44.780Z,38.4
2018-05-17T09:39:50.140Z,38.5
2018-05-17T09:40:55.566Z,38.5
2018-05-17T09:41:59.833Z,39
2018-05-17T09:43:04.186Z,38.4
2018-05-17T09:44:09.564Z,38.4
2018-05-17T09:45:14.894Z,39
2018-05-17T09:46:19.159Z,38.4
2018-05-17T09:47:23.421Z,38.4
2018-05-17T09:48:28.784Z,38.3
2018-05-17T09:49:34.250Z,38.4
2018-05-17T09:50:38.583Z,38.3
2018-05-17T09:51:43.921Z,38.3
2018-05-17T09:52:49.382Z,38.3
2018-05-17T09:53:53.852Z,38.2
2018-05-17T09:54:59.382Z,38.3
2018-05-17T09:56:03.733Z,38.2
2018-05-17T09:57:12.133Z,38.2
2018-05-17T09:58:20.708Z,38.2
2018-05-17T09:59:25.066Z,38.2
2018-05-17T10:00:29.327Z,38.2
2018-05-17T10:01:34.689Z,38.1
2018-05-17T10:02:40.071Z,38.1
2018-05-17T10:03:44.435Z,38.2
2018-05-17T10:04:49.798Z,38.1
2018-05-17T10:05:55.170Z,38.8
2018-05-17T10:06:59.434Z,38.1
2018-05-17T10:08:03.691Z,38.1
2018-05-17T10:09:09.054Z,38.1
2018-05-17T10:10:14.419Z,38.1
2018-05-17T10:11:18.675Z,38.1
2018-05-17T10:12:22.931Z,38.1
2018-05-17T10:13:28.193Z,38.1
2018-05-17T10:14:33.538Z,38.1
2018-05-17T10:15:37.787Z,38.1
2018-05-17T10:16:41.972Z,38.1
2018-05-17T10:17:46.229Z,38.1
2018-05-17T10:18:51.507Z,38.1
2018-05-17T10:19:56.765Z,38.8
2018-05-17T10:21:02.020Z,38.2
2018-05-17T10:22:06.385Z,38.1
2018-05-17T10:23:10.671Z,38.2
2018-05-17T10:24:15.938Z,38
2018-05-17T10:25:21.203Z,38.2
2018-05-17T10:26:25.573Z,38.2
2018-05-17T10:27:29.934Z,38.1
2018-05-17T10:28:35.205Z,38.2
2018-05-17T10:29:40.573Z,38.2
2018-05-17T10:30:44.834Z,38.1
2018-05-17T10:31:49.195Z,38.2
2018-05-17T10:32:54.453Z,38.1
2018-05-17T10:33:59.822Z,37.9
2018-05-17T10:35:04.086Z,38.1
2018-05-17T10:36:11.350Z,38.1
2018-05-17T10:37:16.631Z,38
2018-05-17T10:38:21.894Z,38
2018-05-17T10:39:26.164Z,38
2018-05-17T10:40:30.426Z,38
2018-05-17T10:41:34.694Z,38
2018-05-17T10:42:40.036Z,37.9
2018-05-17T10:43:45.310Z,37.9
2018-05-17T10:44:49.671Z,38.1
2018-05-17T10:45:56.932Z,38
2018-05-17T10:47:02.197Z,38
2018-05-17T10:48:07.458Z,38.7
2018-05-17T10:49:11.826Z,37.9
2018-05-17T10:50:16.097Z,37.9
2018-05-17T10:51:21.465Z,37.9
2018-05-17T10:52:26.824Z,37.9
2018-05-17T10:53:31.105Z,38
2018-05-17T10:54:35.487Z,37.9
2018-05-17T10:55:40.655Z,38
2018-05-17T10:56:45.916Z,37.9
2018-05-17T10:57:51.173Z,38.6
2018-05-17T10:58:59.449Z,37.9
2018-05-17T11:00:03.713Z,38
2018-05-17T11:01:08.071Z,37.9
2018-05-17T11:02:13.335Z,38
2018-05-17T11:03:17.505Z,37.9
2018-05-17T11:04:21.972Z,37.9
2018-05-17T11:05:27.331Z,37.9
2018-05-17T11:06:33.491Z,37.9
2018-05-17T11:07:39.846Z,38
2018-05-17T11:08:44.119Z,37.9
2018-05-17T11:09:48.477Z,37.9
2018-05-17T11:10:53.740Z,38
2018-05-17T11:11:59.001Z,38
2018-05-17T11:13:03.264Z,38
2018-05-17T11:14:07.532Z,37.8
2018-05-17T11:15:12.954Z,37.9
2018-05-17T11:16:18.228Z,38.5
2018-05-17T11:17:22.687Z,37.9
2018-05-17T11:18:30.153Z,38.5
2018-05-17T11:19:35.422Z,37.9
2018-05-17T11:20:39.691Z,37.9
2018-05-17T11:21:43.954Z,37.8
2018-05-17T11:22:48.320Z,37.8
2018-05-17T11:23:53.601Z,37.6
2018-05-17T11:24:58.942Z,37.8
2018-05-17T11:26:03.344Z,37.8
2018-05-17T11:27:08.783Z,37.7
2018-05-17T11:28:14.257Z,37.8
2018-05-17T11:29:18.536Z,37.6
2018-05-17T11:30:24.001Z,37.8
2018-05-17T11:31:29.336Z,37.8
2018-05-17T11:32:33.677Z,37.8
2018-05-17T11:33:39.151Z,37.8
2018-05-17T11:34:44.489Z,37.9
2018-05-17T11:35:48.825Z,37.8
2018-05-17T11:36:56.286Z,37.9
2018-05-17T11:38:01.567Z,37.9
2018-05-17T11:39:05.909Z,37.8
2018-05-17T11:40:10.277Z,37.9
2018-05-17T11:41:15.623Z,37.9
2018-05-17T11:42:20.967Z,37.9
2018-05-17T11:43:25.309Z,37.8
2018-05-17T11:44:32.767Z,37.9
2018-05-17T11:45:38.053Z,38
2018-05-17T11:46:42.417Z,38.7
2018-05-17T11:47:49.780Z,38
2018-05-17T11:48:55.121Z,38
2018-05-17T11:50:00.385Z,38.1
2018-05-17T11:51:04.649Z,38
2018-05-17T11:52:08.907Z,38
2018-05-17T11:53:13.165Z,38
2018-05-17T11:54:18.539Z,38
2018-05-17T11:55:23.901Z,38
2018-05-17T11:56:28.158Z,38
2018-05-17T11:57:35.421Z,38
2018-05-17T11:58:40.683Z,38
2018-05-17T11:59:48.948Z,38
2018-05-17T12:00:54.321Z,38
2018-05-17T12:01:58.582Z,38
2018-05-17T12:03:02.844Z,38
2018-05-17T12:04:08.119Z,38
2018-05-17T12:05:13.376Z,38
2018-05-17T12:06:17.635Z,38
2018-05-17T12:07:22.126Z,38
2018-05-17T12:08:27.295Z,38
2018-05-17T12:09:32.636Z,38
2018-05-17T12:10:41.004Z,38
2018-05-17T12:11:45.343Z,38
2018-05-17T12:12:50.808Z,38.6
2018-05-17T12:13:55.390Z,37.9
2018-05-17T12:14:59.725Z,37.8
2018-05-17T12:16:05.088Z,37.8
2018-05-17T12:17:09.544Z,37.8
2018-05-17T12:18:13.884Z,37.9
2018-05-17T12:19:19.251Z,37.7
2018-05-17T12:20:23.589Z,37.8
2018-05-17T12:21:27.944Z,37.8
2018-05-17T12:22:33.203Z,37.8
2018-05-17T12:23:38.475Z,37.9
2018-05-17T12:24:42.737Z,37.8
2018-05-17T12:25:47.005Z,37.7
2018-05-17T12:26:51.261Z,37.8
2018-05-17T12:27:56.516Z,37.7
2018-05-17T12:29:01.890Z,37.6
2018-05-17T12:30:06.259Z,37.6
2018-05-17T12:31:13.518Z,37.7
2018-05-17T12:32:18.884Z,37.7
2018-05-17T12:33:24.252Z,37.7
2018-05-17T12:34:28.607Z,37.6
2018-05-17T12:35:33.939Z,37.6
2018-05-17T12:36:38.429Z,37.6
2018-05-17T12:37:42.891Z,37.6
2018-05-17T12:38:48.230Z,38.2
2018-05-17T12:39:53.520Z,37.6
2018-05-17T12:40:57.892Z,37.6
2018-05-17T12:42:02.226Z,37.5
2018-05-17T12:43:07.695Z,37.5
2018-05-17T12:44:12.069Z,37.3
2018-05-17T12:45:16.410Z,37.5
2018-05-17T12:46:21.898Z,37.5
2018-05-17T12:47:26.243Z,37.4
2018-05-17T12:48:30.595Z,37.4
2018-05-17T12:49:35.856Z,37.4
2018-05-17T12:50:41.321Z,37.4
2018-05-17T12:51:45.781Z,37.4
2018-05-17T12:52:51.124Z,37.4
2018-05-17T12:53:55.488Z,37.2
2018-05-17T12:54:59.854Z,37.4
2018-05-17T12:56:05.215Z,37.4
2018-05-17T12:57:10.474Z,37.3
2018-05-17T12:58:15.032Z,37.3
2018-05-17T12:59:20.401Z,37
2018-05-17T13:00:30.737Z,37.9
2018-05-17T13:01:35.199Z,37.3
2018-05-17T13:02:40.633Z,37.3
2018-05-17T13:03:45.906Z,37.3
2018-05-17T13:04:50.249Z,37.2
2018-05-17T13:05:54.718Z,37.2
2018-05-17T13:07:00.260Z,37.1
2018-05-17T13:08:04.539Z,37.2
2018-05-17T13:09:08.805Z,36.9
2018-05-17T13:10:14.069Z,37.1
2018-05-17T13:11:19.410Z,37.2
2018-05-17T13:12:23.754Z,37.3
2018-05-17T13:13:28.127Z,37.3
2018-05-17T13:14:33.493Z,37.3
2018-05-17T13:15:37.762Z,38
2018-05-17T13:16:42.031Z,37.4
2018-05-17T13:17:47.300Z,37.4
2018-05-17T13:18:52.471Z,37.5
2018-05-17T13:19:57.731Z,37.5
2018-05-17T13:21:03.092Z,37.4
2018-05-17T13:22:07.355Z,37.5
2018-05-17T13:23:12.611Z,37.4
2018-05-17T13:24:17.873Z,37.3
2018-05-17T13:25:23.240Z,37.5
2018-05-17T13:26:27.713Z,37.5
2018-05-17T13:27:33.178Z,37.5
2018-05-17T13:28:38.646Z,37.4
2018-05-17T13:29:43.121Z,37.4
2018-05-17T13:30:48.381Z,37.5
2018-05-17T13:31:53.853Z,37.6
2018-05-17T13:32:58.115Z,37.6
2018-05-17T13:34:03.487Z,37.6
2018-05-17T13:35:08.851Z,37.6
2018-05-17T13:36:13.110Z,37.6
2018-05-17T13:37:17.476Z,37.6
2018-05-17T13:38:22.649Z,37.6
2018-05-17T13:39:27.911Z,37.6
2018-05-17T13:40:32.179Z,37.7
2018-05-17T13:41:36.441Z,38.3
2018-05-17T13:42:40.808Z,37.7
2018-05-17T13:43:46.080Z,37.7
2018-05-17T13:44:51.436Z,37.8
2018-05-17T13:45:55.795Z,37.7
2018-05-17T13:47:01.159Z,37.8
2018-05-17T13:48:06.417Z,37.8
2018-05-17T13:49:10.820Z,37.6
2018-05-17T13:50:15.166Z,37.8
2018-05-17T13:51:19.741Z,37.7
2018-05-17T13:52:24.201Z,37.8
2018-05-17T13:53:29.542Z,37.8
2018-05-17T13:54:34.882Z,37.7
2018-05-17T13:55:39.410Z,37.8
2018-05-17T13:56:44.776Z,37.8
2018-05-17T13:57:50.113Z,37.8
2018-05-17T13:58:54.576Z,37.8
2018-05-17T13:59:59.938Z,37.8
2018-05-17T14:01:07.408Z,37.9
2018-05-17T14:02:11.926Z,37.8
2018-05-17T14:03:17.303Z,37.8
2018-05-17T14:04:22.575Z,37.7
2018-05-17T14:05:26.938Z,37.8
2018-05-17T14:06:32.110Z,37.8
2018-05-17T14:07:37.367Z,37.9
2018-05-17T14:08:42.845Z,37.9
2018-05-17T14:09:47.224Z,37.9
2018-05-17T14:10:52.563Z,37.9
2018-05-17T14:11:57.923Z,37.8
2018-05-17T14:13:02.381Z,37.8
2018-05-17T14:14:06.719Z,37.6
2018-05-17T14:15:12.206Z,37.8
2018-05-17T14:16:16.560Z,37.8
2018-05-17T14:17:23.922Z,37.8
2018-05-17T14:18:29.297Z,37.8
2018-05-17T14:19:33.554Z,37.8
2018-05-17T14:20:37.916Z,37.8
2018-05-17T14:21:43.274Z,37.8
2018-05-17T14:22:48.629Z,37.8
2018-05-17T14:23:52.998Z,37.7
2018-05-17T14:24:57.261Z,37.7
2018-05-17T14:26:02.622Z,37.7
2018-05-17T14:27:07.881Z,37.7
2018-05-17T14:28:12.041Z,37.7
2018-05-17T14:29:16.416Z,37.7
2018-05-17T14:30:21.685Z,37.7
2018-05-17T14:31:26.941Z,37.7